createdAt,value
2019-05-06T00:00:27.922Z,7.10
2019-05-06T00:02:57.777Z,7.10
2019-05-06T00:05:27.558Z,7.10
2019-05-06T00:07:57.481Z,7.00
2019-05-06T00:10:34.175Z,7.10
2019-05-06T00:13:04.594Z,7.10
2019-05-06T00:15:34.816Z,7.10
2019-05-06T00:18:04.864Z,7.10
2019-05-06T00:20:35.154Z,7.10
2019-05-06T00:23:07.717Z,7.10
2019-05-06T00:25:39.142Z,7.10
2019-05-06T00:28:25.912Z,7.10
2019-05-06T00:31:09.592Z,7.10
2019-05-06T00:33:28.796Z,7.00
2019-05-06T00:36:00.443Z,7.00
2019-05-06T00:38:30.059Z,7.00
2019-05-06T00:41:03.881Z,7.00
2019-05-06T00:43:34.474Z,6.90
2019-05-06T00:46:04.817Z,6.90
2019-05-06T00:48:35.823Z,6.90
2019-05-06T00:51:05.608Z,6.90
2019-05-06T00:53:39.528Z,6.90
2019-05-06T00:56:09.324Z,6.90
2019-05-06T00:58:39.092Z,6.90
2019-05-06T01:01:09.152Z,6.90
2019-05-06T01:03:38.919Z,6.90
2019-05-06T01:06:08.816Z,6.90
2019-05-06T01:08:38.668Z,6.90
2019-05-06T01:11:08.668Z,6.90
2019-05-06T01:13:54.396Z,6.90
2019-05-06T01:16:24.989Z,6.90
2019-05-06T01:18:54.924Z,7.00
2019-05-06T01:21:25.674Z,6.90
2019-05-06T01:23:55.447Z,6.90
2019-05-06T01:26:25.225Z,6.80
2019-05-06T01:28:55.012Z,6.80
2019-05-06T01:31:33.281Z,6.90
2019-05-06T01:33:56.339Z,6.90
2019-05-06T01:36:26.131Z,7.00
2019-05-06T01:39:09.248Z,7.00
2019-05-06T01:41:40.681Z,6.90
2019-05-06T01:44:10.458Z,7.00
2019-05-06T01:46:40.247Z,7.00
2019-05-06T01:49:10.024Z,7.00
2019-05-06T01:51:39.816Z,7.00
2019-05-06T01:54:09.592Z,7.00
2019-05-06T01:56:39.374Z,7.00
2019-05-06T01:59:09.166Z,7.00
2019-05-06T02:01:38.940Z,7.00
2019-05-06T02:04:08.722Z,6.90
2019-05-06T02:06:38.495Z,7.00
2019-05-06T02:09:13.782Z,7.00
2019-05-06T02:11:44.201Z,7.00
2019-05-06T02:14:15.237Z,7.00
2019-05-06T02:16:46.083Z,7.00
2019-05-06T02:19:15.867Z,7.00
2019-05-06T02:21:47.278Z,7.00
2019-05-06T02:24:27.991Z,7.10
2019-05-06T02:26:57.780Z,7.00
2019-05-06T02:29:29.264Z,7.00
2019-05-06T02:32:17.193Z,7.00
2019-05-06T02:34:45.487Z,7.00
2019-05-06T02:37:15.102Z,7.00
2019-05-06T02:39:44.884Z,7.00
2019-05-06T02:42:14.670Z,7.00
2019-05-06T02:44:44.523Z,7.00
2019-05-06T02:47:23.008Z,6.90
2019-05-06T02:49:54.762Z,7.00
2019-05-06T02:52:24.544Z,7.00
2019-05-06T02:54:54.344Z,7.00
2019-05-06T02:57:24.213Z,7.00
2019-05-06T02:59:55.711Z,7.00
2019-05-06T03:02:38.104Z,7.00
2019-05-06T03:04:57.204Z,7.00
2019-05-06T03:07:26.978Z,7.10
2019-05-06T03:09:56.753Z,7.10
2019-05-06T03:12:26.540Z,7.10
2019-05-06T03:14:56.324Z,7.10
2019-05-06T03:17:26.112Z,7.10
2019-05-06T03:19:57.536Z,7.10
2019-05-06T03:22:57.330Z,7.10
2019-05-06T03:25:28.980Z,7.10
2019-05-06T03:27:58.765Z,7.10
2019-05-06T03:30:28.539Z,7.10
2019-05-06T03:33:31.508Z,7.00
2019-05-06T03:35:44.154Z,7.00
2019-05-06T03:38:03.894Z,7.00
2019-05-06T03:40:36.120Z,6.90
2019-05-06T03:43:04.299Z,7.00
2019-05-06T03:45:35.710Z,6.90
2019-05-06T03:48:12.812Z,6.90
2019-05-06T03:50:44.027Z,6.90
2019-05-06T03:53:14.044Z,6.90
2019-05-06T03:55:47.129Z,6.90
2019-05-06T03:58:18.879Z,6.80
2019-05-06T04:00:49.925Z,6.80
2019-05-06T04:03:19.724Z,6.70
2019-05-06T04:05:49.514Z,6.70
2019-05-06T04:08:20.484Z,6.70
2019-05-06T04:10:53.988Z,6.60
2019-05-06T04:13:24.994Z,6.60
2019-05-06T04:16:03.752Z,6.70
2019-05-06T04:18:53.770Z,6.60
2019-05-06T04:21:25.147Z,6.70
2019-05-06T04:24:05.402Z,6.60
2019-05-06T04:26:46.107Z,6.60
2019-05-06T04:29:14.439Z,6.60
2019-05-06T04:31:44.221Z,6.60
2019-05-06T04:34:19.142Z,6.50
2019-05-06T04:36:45.551Z,6.60
2019-05-06T04:39:15.345Z,6.60
2019-05-06T04:41:45.293Z,6.60
2019-05-06T04:44:15.263Z,6.60
2019-05-06T04:46:45.111Z,6.70
2019-05-06T04:49:16.510Z,6.60
2019-05-06T04:51:46.365Z,6.70
2019-05-06T04:54:16.536Z,6.60
2019-05-06T04:56:47.157Z,6.70
2019-05-06T04:59:17.017Z,6.70
2019-05-06T05:01:46.801Z,6.80
2019-05-06T05:04:28.526Z,6.70
2019-05-06T05:06:48.294Z,6.70
2019-05-06T05:09:18.063Z,6.70
2019-05-06T05:11:52.975Z,6.80
2019-05-06T05:14:26.288Z,6.80
2019-05-06T05:16:57.774Z,6.80
2019-05-06T05:19:29.297Z,6.90
2019-05-06T05:22:07.815Z,6.90
2019-05-06T05:24:37.852Z,6.90
2019-05-06T05:27:07.770Z,7.00
2019-05-06T05:29:37.561Z,7.00
2019-05-06T05:32:07.344Z,7.00
2019-05-06T05:34:40.616Z,7.00
2019-05-06T05:37:08.684Z,7.00
2019-05-06T05:39:38.479Z,7.10
2019-05-06T05:42:15.953Z,7.10
2019-05-06T05:44:47.394Z,7.10
2019-05-06T05:47:17.314Z,7.20
2019-05-06T05:50:05.894Z,7.20
2019-05-06T05:52:35.745Z,7.20
2019-05-06T05:55:05.972Z,7.20
2019-05-06T05:57:35.815Z,7.20
2019-05-06T06:00:06.313Z,7.20
2019-05-06T06:02:36.084Z,7.20
2019-05-06T06:05:07.686Z,7.20
2019-05-06T06:07:37.606Z,7.20
2019-05-06T06:10:24.413Z,7.20
2019-05-06T06:12:55.194Z,7.20
2019-05-06T06:15:32.917Z,7.30
2019-05-06T06:18:04.696Z,7.30
2019-05-06T06:20:54.531Z,7.40
2019-05-06T06:23:25.944Z,7.40
2019-05-06T06:25:56.210Z,7.50
2019-05-06T06:28:26.055Z,7.60
2019-05-06T06:31:03.407Z,7.70
2019-05-06T06:33:33.190Z,7.80
2019-05-06T06:36:04.632Z,7.80
2019-05-06T06:38:52.762Z,7.90
2019-05-06T06:41:22.931Z,7.90
2019-05-06T06:44:02.283Z,7.90
2019-05-06T06:46:32.416Z,8.00
2019-05-06T06:49:03.244Z,8.00
2019-05-06T06:51:34.345Z,8.10
2019-05-06T06:54:04.784Z,8.10
2019-05-06T06:56:39.167Z,8.20
2019-05-06T06:59:17.327Z,8.20
2019-05-06T07:01:49.267Z,8.30
2019-05-06T07:04:26.879Z,8.30
2019-05-06T07:06:58.783Z,8.30
2019-05-06T07:09:29.851Z,8.40
2019-05-06T07:12:00.553Z,8.40
2019-05-06T07:14:32.325Z,8.40
2019-05-06T07:17:02.480Z,8.40
2019-05-06T07:19:35.165Z,8.40
2019-05-06T07:22:07.030Z,8.50
2019-05-06T07:24:36.623Z,8.50
2019-05-06T07:27:08.067Z,8.40
2019-05-06T07:29:37.847Z,8.30
2019-05-06T07:32:07.713Z,8.30
2019-05-06T07:34:37.489Z,8.30
2019-05-06T07:37:07.277Z,8.30
2019-05-06T07:39:37.060Z,8.40
2019-05-06T07:42:08.494Z,8.30
2019-05-06T07:44:58.400Z,8.20
2019-05-06T07:47:29.840Z,8.20
2019-05-06T07:49:59.617Z,8.10
2019-05-06T07:52:29.417Z,8.10
2019-05-06T07:54:59.192Z,8.00
2019-05-06T07:57:28.986Z,8.00
2019-05-06T07:59:58.755Z,8.00
2019-05-06T08:02:28.552Z,8.00
2019-05-06T08:04:59.412Z,8.10
2019-05-06T08:07:29.181Z,8.20
2019-05-06T08:09:59.034Z,8.30
2019-05-06T08:12:28.832Z,8.30
2019-05-06T08:14:58.675Z,8.30
2019-05-06T08:17:30.109Z,8.40
2019-05-06T08:20:02.321Z,8.40
2019-05-06T08:22:52.973Z,8.40
2019-05-06T08:25:23.028Z,8.40
2019-05-06T08:27:53.328Z,8.30
2019-05-06T08:30:23.258Z,8.20
2019-05-06T08:32:53.064Z,8.20
2019-05-06T08:35:22.879Z,8.10
2019-05-06T08:37:53.192Z,8.10
2019-05-06T08:40:26.130Z,8.20
2019-05-06T08:42:54.507Z,8.40
2019-05-06T08:45:24.343Z,8.50
2019-05-06T08:47:54.124Z,8.60
2019-05-06T08:50:42.568Z,8.80
2019-05-06T08:53:23.980Z,8.90
2019-05-06T08:55:52.947Z,9.00
2019-05-06T08:58:24.588Z,9.10
2019-05-06T09:01:08.251Z,9.20
2019-05-06T09:03:39.114Z,9.20
2019-05-06T09:06:23.603Z,9.40
2019-05-06T09:08:40.363Z,9.40
2019-05-06T09:11:12.207Z,9.50
2019-05-06T09:13:42.873Z,9.50
2019-05-06T09:16:13.072Z,9.40
2019-05-06T09:18:43.018Z,9.40
2019-05-06T09:21:12.795Z,9.50
2019-05-06T09:23:42.599Z,9.50
2019-05-06T09:26:14.975Z,9.50
2019-05-06T09:28:48.964Z,9.40
2019-05-06T09:31:20.363Z,9.40
2019-05-06T09:33:57.565Z,9.40
2019-05-06T09:36:39.848Z,9.50
2019-05-06T09:38:58.859Z,9.60
2019-05-06T09:41:28.649Z,9.70
2019-05-06T09:43:58.428Z,9.80
2019-05-06T09:46:28.219Z,9.90
2019-05-06T09:49:03.378Z,10.00
2019-05-06T09:51:33.215Z,10.00
2019-05-06T09:54:08.371Z,10.10
2019-05-06T09:56:48.647Z,10.30
2019-05-06T09:59:18.540Z,10.40
2019-05-06T10:01:48.691Z,10.50
2019-05-06T10:04:18.489Z,10.50
2019-05-06T10:06:56.404Z,10.60
2019-05-06T10:09:19.854Z,10.60
2019-05-06T10:11:49.702Z,10.70
2019-05-06T10:14:19.575Z,10.70
2019-05-06T10:16:49.367Z,10.80
2019-05-06T10:19:19.219Z,10.90
2019-05-06T10:21:49.021Z,11.00
2019-05-06T10:24:18.871Z,11.10
2019-05-06T10:26:52.282Z,11.30
2019-05-06T10:29:23.444Z,11.40
2019-05-06T10:32:06.651Z,11.40
2019-05-06T10:34:36.439Z,11.30
2019-05-06T10:37:18.914Z,11.00
2019-05-06T10:39:52.196Z,10.80
2019-05-06T10:42:25.229Z,10.50
2019-05-06T10:44:58.078Z,10.30
2019-05-06T10:47:28.838Z,10.20
2019-05-06T10:49:58.699Z,10.20
2019-05-06T10:52:30.135Z,10.20
2019-05-06T10:54:59.929Z,10.20
2019-05-06T10:57:32.816Z,10.20
2019-05-06T11:00:03.293Z,10.20
2019-05-06T11:02:48.100Z,10.20
2019-05-06T11:05:18.021Z,10.30
2019-05-06T11:07:47.815Z,10.20
2019-05-06T11:10:26.939Z,10.10
2019-05-06T11:12:49.163Z,10.10
2019-05-06T11:15:19.306Z,10.10
2019-05-06T11:17:49.077Z,10.10
2019-05-06T11:20:19.009Z,10.30
2019-05-06T11:22:52.692Z,10.40
2019-05-06T11:25:23.013Z,10.50
2019-05-06T11:27:53.049Z,10.60
2019-05-06T11:30:24.840Z,10.70
2019-05-06T11:32:56.363Z,10.80
2019-05-06T11:35:27.810Z,10.80
2019-05-06T11:38:02.347Z,10.80
2019-05-06T11:40:33.238Z,10.90
2019-05-06T11:43:03.195Z,10.80
2019-05-06T11:45:32.991Z,10.80
2019-05-06T11:48:02.773Z,10.80
2019-05-06T11:50:33.442Z,10.80
2019-05-06T11:53:03.390Z,10.80
2019-05-06T11:55:38.573Z,10.80
2019-05-06T11:58:07.290Z,10.80
2019-05-06T12:00:44.380Z,10.90
2019-05-06T12:03:13.937Z,11.00
2019-05-06T12:05:43.740Z,11.00
2019-05-06T12:08:15.679Z,11.10
2019-05-06T12:10:45.020Z,11.00
2019-05-06T12:13:14.808Z,10.90
2019-05-06T12:15:44.692Z,10.90
2019-05-06T12:18:14.476Z,10.90
2019-05-06T12:20:44.271Z,10.90
2019-05-06T12:23:15.596Z,10.80
2019-05-06T12:25:46.256Z,10.80
2019-05-06T12:28:17.672Z,10.70
2019-05-06T12:30:59.985Z,10.60
2019-05-06T12:33:32.972Z,10.60
2019-05-06T12:36:04.764Z,10.60
2019-05-06T12:38:36.196Z,10.60
2019-05-06T12:41:06.077Z,10.60
2019-05-06T12:43:37.491Z,10.70
2019-05-06T12:46:13.300Z,10.80
2019-05-06T12:48:47.818Z,10.90
2019-05-06T12:51:17.602Z,11.00
2019-05-06T12:53:47.547Z,11.10
2019-05-06T12:56:17.485Z,11.30
2019-05-06T12:58:47.272Z,11.40
2019-05-06T13:01:17.076Z,11.50
2019-05-06T13:03:46.866Z,11.50
2019-05-06T13:06:16.794Z,11.60
2019-05-06T13:08:58.653Z,11.60
2019-05-06T13:11:18.309Z,11.60
2019-05-06T13:13:57.551Z,11.40
2019-05-06T13:16:22.695Z,11.30
2019-05-06T13:18:54.688Z,11.30
2019-05-06T13:21:23.284Z,11.40
2019-05-06T13:23:54.813Z,11.50
2019-05-06T13:26:24.587Z,11.60
2019-05-06T13:28:56.038Z,11.60
2019-05-06T13:31:25.934Z,11.70
2019-05-06T13:33:57.493Z,11.70
2019-05-06T13:36:27.460Z,11.80
2019-05-06T13:39:10.645Z,11.90
2019-05-06T13:41:28.814Z,12.00
2019-05-06T13:44:02.476Z,12.10
2019-05-06T13:46:33.521Z,12.10
2019-05-06T13:49:06.224Z,12.10
2019-05-06T13:51:42.931Z,12.20
2019-05-06T13:54:15.873Z,12.20
2019-05-06T13:56:44.130Z,12.30
2019-05-06T13:59:13.941Z,12.50
2019-05-06T14:01:48.549Z,12.60
2019-05-06T14:04:18.353Z,12.80
2019-05-06T14:06:48.137Z,12.90
2019-05-06T14:09:28.715Z,12.90
2019-05-06T14:11:49.420Z,12.90
2019-05-06T14:14:19.255Z,13.20
2019-05-06T14:16:49.046Z,13.40
2019-05-06T14:19:18.828Z,13.60
2019-05-06T14:21:48.619Z,13.90
2019-05-06T14:24:18.477Z,14.30
2019-05-06T14:26:58.522Z,14.70
2019-05-06T14:29:28.796Z,15.00
2019-05-06T14:31:59.861Z,14.90
2019-05-06T14:34:29.649Z,14.80
2019-05-06T14:36:59.458Z,14.60
2019-05-06T14:39:48.515Z,14.30
2019-05-06T14:42:05.290Z,13.90
2019-05-06T14:44:35.054Z,13.70
2019-05-06T14:47:06.564Z,13.60
2019-05-06T14:49:36.348Z,13.60
2019-05-06T14:52:06.146Z,13.90
2019-05-06T14:54:37.580Z,14.20
2019-05-06T14:57:09.024Z,14.40
2019-05-06T14:59:38.796Z,14.40
2019-05-06T15:02:08.601Z,14.30
2019-05-06T15:04:38.374Z,14.10
2019-05-06T15:07:08.173Z,14.00
2019-05-06T15:09:53.658Z,13.90
2019-05-06T15:12:12.787Z,13.70
2019-05-06T15:14:42.598Z,13.70
2019-05-06T15:17:14.400Z,13.80
2019-05-06T15:19:43.960Z,13.50
2019-05-06T15:22:13.764Z,13.20
2019-05-06T15:24:43.554Z,12.90
2019-05-06T15:27:13.359Z,12.70
2019-05-06T15:29:48.195Z,12.60
2019-05-06T15:32:22.167Z,12.40
2019-05-06T15:35:10.093Z,12.40
2019-05-06T15:37:42.490Z,12.30
2019-05-06T15:40:13.705Z,12.30
2019-05-06T15:42:43.504Z,12.20
2019-05-06T15:45:14.334Z,12.20
2019-05-06T15:47:44.604Z,12.10
2019-05-06T15:50:14.735Z,12.00
2019-05-06T15:52:44.533Z,12.00
2019-05-06T15:55:14.381Z,11.90
2019-05-06T15:57:44.276Z,11.80
2019-05-06T16:00:16.444Z,11.60
2019-05-06T16:02:46.244Z,11.50
2019-05-06T16:05:19.814Z,11.40
2019-05-06T16:07:47.884Z,11.30
2019-05-06T16:10:18.700Z,11.10
2019-05-06T16:12:49.243Z,11.10
2019-05-06T16:15:19.390Z,11.10
2019-05-06T16:17:49.192Z,11.00
2019-05-06T16:20:19.044Z,10.90
2019-05-06T16:22:52.241Z,10.90
2019-05-06T16:25:23.106Z,10.90
2019-05-06T16:27:54.926Z,10.70
2019-05-06T16:30:26.132Z,10.70
2019-05-06T16:32:55.927Z,10.60
2019-05-06T16:35:25.783Z,10.60
2019-05-06T16:37:55.586Z,10.50
2019-05-06T16:40:25.562Z,10.50
2019-05-06T16:42:55.431Z,10.50
2019-05-06T16:45:26.212Z,10.40
2019-05-06T16:47:55.989Z,10.30
2019-05-06T16:50:29.384Z,10.30
2019-05-06T16:52:57.881Z,10.20
2019-05-06T16:55:45.671Z,10.20
2019-05-06T16:58:17.110Z,10.10
2019-05-06T17:00:46.918Z,10.10
2019-05-06T17:03:18.347Z,10.10
2019-05-06T17:05:51.915Z,10.10
2019-05-06T17:08:23.401Z,10.00
2019-05-06T17:10:53.174Z,10.00
2019-05-06T17:13:23.060Z,10.00
2019-05-06T17:15:52.998Z,10.00
2019-05-06T17:18:22.843Z,9.90
2019-05-06T17:20:52.638Z,9.80
2019-05-06T17:23:22.506Z,9.80
2019-05-06T17:25:52.308Z,9.80
2019-05-06T17:28:29.491Z,9.70
2019-05-06T17:31:03.632Z,9.70
2019-05-06T17:33:38.008Z,9.70
2019-05-06T17:36:09.516Z,9.60
2019-05-06T17:38:52.677Z,9.60
2019-05-06T17:41:24.806Z,9.60
2019-05-06T17:43:54.068Z,9.60
2019-05-06T17:46:25.473Z,9.60
2019-05-06T17:48:56.915Z,9.60
2019-05-06T17:51:28.406Z,9.60
2019-05-06T17:53:59.848Z,9.60
2019-05-06T17:56:29.636Z,9.60
2019-05-06T17:58:59.513Z,9.60
2019-05-06T18:01:33.066Z,9.60
2019-05-06T18:04:05.219Z,9.60
2019-05-06T18:06:35.079Z,9.60
2019-05-06T18:09:07.083Z,9.50
2019-05-06T18:11:38.486Z,9.50
2019-05-06T18:14:08.742Z,9.50
2019-05-06T18:16:38.708Z,9.50
2019-05-06T18:19:08.507Z,9.60
2019-05-06T18:21:38.315Z,9.60
2019-05-06T18:24:09.883Z,9.60
2019-05-06T18:26:41.964Z,9.60
2019-05-06T18:29:12.574Z,9.60
2019-05-06T18:31:42.903Z,9.60
2019-05-06T18:34:13.886Z,9.60
2019-05-06T18:36:43.683Z,9.60
2019-05-06T18:39:13.660Z,9.60
2019-05-06T18:41:43.472Z,9.60
2019-05-06T18:44:14.241Z,9.60
2019-05-06T18:46:44.047Z,9.60
2019-05-06T18:49:13.929Z,9.60
2019-05-06T18:51:45.374Z,9.60
2019-05-06T18:54:15.333Z,9.60
2019-05-06T18:56:45.194Z,9.50
2019-05-06T18:59:16.603Z,9.50
2019-05-06T19:01:46.479Z,9.50
2019-05-06T19:04:23.875Z,9.50
2019-05-06T19:07:09.192Z,9.50
2019-05-06T19:09:42.419Z,9.40
2019-05-06T19:12:29.037Z,9.40
2019-05-06T19:14:46.111Z,9.40
2019-05-06T19:17:15.986Z,9.30
2019-05-06T19:19:47.387Z,9.30
2019-05-06T19:22:17.176Z,9.30
2019-05-06T19:24:47.041Z,9.30
2019-05-06T19:27:18.415Z,9.20
2019-05-06T19:29:48.372Z,9.20
2019-05-06T19:32:18.267Z,9.20
2019-05-06T19:34:48.115Z,9.20
2019-05-06T19:37:17.911Z,9.20
2019-05-06T19:39:47.779Z,9.20
2019-05-06T19:42:17.592Z,9.10
2019-05-06T19:44:47.427Z,9.10
2019-05-06T19:47:17.355Z,9.10
2019-05-06T19:49:50.051Z,9.10
2019-05-06T19:52:24.997Z,9.10
2019-05-06T19:54:54.279Z,9.10
2019-05-06T19:57:28.396Z,9.10
2019-05-06T20:00:03.172Z,9.10
2019-05-06T20:02:34.366Z,9.10
2019-05-06T20:05:07.972Z,9.00
2019-05-06T20:07:52.132Z,9.00
2019-05-06T20:10:35.988Z,9.00
2019-05-06T20:13:06.268Z,9.00
2019-05-06T20:15:38.230Z,8.90
2019-05-06T20:18:08.487Z,8.90
2019-05-06T20:20:38.822Z,8.90
2019-05-06T20:23:09.640Z,8.90
2019-05-06T20:25:39.468Z,8.90
2019-05-06T20:28:12.982Z,8.90
2019-05-06T20:30:42.250Z,8.90
2019-05-06T20:33:13.502Z,8.90
2019-05-06T20:35:43.465Z,8.90
2019-05-06T20:38:13.436Z,8.90
2019-05-06T20:40:43.404Z,8.90
2019-05-06T20:43:20.444Z,8.90
2019-05-06T20:45:46.170Z,8.90
2019-05-06T20:48:17.198Z,8.90
2019-05-06T20:50:47.018Z,8.80
2019-05-06T20:53:16.867Z,8.80
2019-05-06T20:55:46.676Z,8.80
2019-05-06T20:58:16.488Z,8.80
2019-05-06T21:00:46.356Z,8.80
2019-05-06T21:03:16.160Z,8.80
2019-05-06T21:05:45.955Z,8.80
2019-05-06T21:08:15.756Z,8.80
2019-05-06T21:10:45.552Z,8.80
2019-05-06T21:13:28.567Z,8.80
2019-05-06T21:15:46.936Z,8.80
2019-05-06T21:18:17.634Z,8.80
2019-05-06T21:20:47.420Z,8.80
2019-05-06T21:23:17.226Z,8.80
2019-05-06T21:25:47.030Z,8.80
2019-05-06T21:28:16.872Z,8.80
2019-05-06T21:30:46.667Z,8.80
2019-05-06T21:33:16.470Z,8.90
2019-05-06T21:35:48.795Z,8.90
2019-05-06T21:38:17.748Z,8.90
2019-05-06T21:40:47.544Z,8.90
2019-05-06T21:43:17.574Z,8.90
2019-05-06T21:45:47.376Z,8.80
2019-05-06T21:48:17.180Z,8.80
2019-05-06T21:50:46.995Z,8.80
2019-05-06T21:53:16.800Z,8.80
2019-05-06T21:55:46.716Z,8.80
2019-05-06T21:58:16.516Z,8.80
2019-05-06T22:00:52.570Z,8.80
2019-05-06T22:03:22.935Z,8.80
2019-05-06T22:05:54.591Z,8.80
2019-05-06T22:08:25.764Z,8.80
2019-05-06T22:10:55.572Z,8.80
2019-05-06T22:13:25.349Z,8.80
2019-05-06T22:15:55.147Z,8.80
2019-05-06T22:18:24.941Z,8.80
2019-05-06T22:21:12.839Z,8.80
2019-05-06T22:23:50.108Z,8.70
2019-05-06T22:26:22.780Z,8.70
2019-05-06T22:28:52.615Z,8.70
2019-05-06T22:31:24.392Z,8.60
2019-05-06T22:33:57.171Z,8.60
2019-05-06T22:36:27.119Z,8.60
2019-05-06T22:38:57.572Z,8.60
2019-05-06T22:41:27.372Z,8.60
2019-05-06T22:43:57.165Z,8.60
2019-05-06T22:46:27.048Z,8.50
2019-05-06T22:48:56.835Z,8.50
2019-05-06T22:51:26.671Z,8.50
2019-05-06T22:53:56.470Z,8.40
2019-05-06T22:56:26.251Z,8.40
2019-05-06T22:58:56.128Z,8.40
2019-05-06T23:01:36.744Z,8.40
2019-05-06T23:04:07.532Z,8.40
2019-05-06T23:06:37.318Z,8.40
2019-05-06T23:09:09.236Z,8.40
2019-05-06T23:11:39.027Z,8.40
2019-05-06T23:14:08.830Z,8.40
2019-05-06T23:16:38.610Z,8.40
2019-05-06T23:19:08.417Z,8.40
2019-05-06T23:21:38.203Z,8.40
2019-05-06T23:24:07.993Z,8.40
2019-05-06T23:26:37.778Z,8.40
2019-05-06T23:29:08.029Z,8.40
2019-05-06T23:31:37.822Z,8.40
2019-05-06T23:34:07.632Z,8.40
2019-05-06T23:36:49.553Z,8.40
2019-05-06T23:43:28.751Z,8.40
2019-05-06T23:46:34.714Z,8.40
2019-05-06T23:49:42.244Z,8.40
2019-05-06T23:52:48.722Z,8.40
2019-05-06T23:55:54.829Z,8.40
2019-05-06T23:58:23.544Z,8.40
